sensor_id;sensor_type;location;lat;lon;timestamp;temperature;humidity
13798;DHT22;6970;51.340;3.240;2022-11-15T00:01:08;9.80;99.90
13798;DHT22;6970;51.340;3.240;2022-11-15T00:03:36;9.80;99.90
13798;DHT22;6970;51.340;3.240;2022-11-15T00:06:04;9.90;99.90
13798;DHT22;6970;51.340;3.240;2022-11-15T00:08:32;9.90;99.90
13798;DHT22;6970;51.340;3.240;2022-11-15T00:11:01;10.00;99.90
13798;DHT22;6970;51.340;3.240;2022-11-15T00:13:29;10.00;99.90
13798;DHT22;6970;51.340;3.240;2022-11-15T00:15:58;10.10;99.90
13798;DHT22;6970;51.340;3.240;2022-11-15T00:18:26;10.20;99.90
13798;DHT22;6970;51.340;3.240;2022-11-15T00:20:53;10.20;99.90
13798;DHT22;6970;51.340;3.240;2022-11-15T00:23:20;10.30;99.90
13798;DHT22;6970;51.340;3.240;2022-11-15T00:25:47;10.30;99.90
13798;DHT22;6970;51.340;3.240;2022-11-15T00:28:14;10.40;99.90
13798;DHT22;6970;51.340;3.240;2022-11-15T00:30:41;10.50;99.90
13798;DHT22;6970;51.340;3.240;2022-11-15T00:33:11;10.50;99.90
13798;DHT22;6970;51.340;3.240;2022-11-15T00:35:37;10.60;99.90
13798;DHT22;6970;51.340;3.240;2022-11-15T00:38:04;10.60;99.90
13798;DHT22;6970;51.340;3.240;2022-11-15T00:40:31;10.60;99.90
13798;DHT22;6970;51.340;3.240;2022-11-15T00:42:59;10.70;99.90
13798;DHT22;6970;51.340;3.240;2022-11-15T00:45:26;10.80;99.90
13798;DHT22;6970;51.340;3.240;2022-11-15T00:47:53;10.80;99.90
13798;DHT22;6970;51.340;3.240;2022-11-15T00:50:20;10.80;99.90
13798;DHT22;6970;51.340;3.240;2022-11-15T00:52:47;10.80;99.90
13798;DHT22;6970;51.340;3.240;2022-11-15T00:55:15;10.80;99.90
13798;DHT22;6970;51.340;3.240;2022-11-15T00:57:43;10.90;99.90
13798;DHT22;6970;51.340;3.240;2022-11-15T01:00:10;10.90;99.90
13798;DHT22;6970;51.340;3.240;2022-11-15T01:02:37;10.90;99.90
13798;DHT22;6970;51.340;3.240;2022-11-15T01:05:05;10.90;99.90
13798;DHT22;6970;51.340;3.240;2022-11-15T01:07:32;10.90;99.90
13798;DHT22;6970;51.340;3.240;2022-11-15T01:09:59;11.00;99.90
13798;DHT22;6970;51.340;3.240;2022-11-15T01:12:27;11.00;99.90
13798;DHT22;6970;51.340;3.240;2022-11-15T01:14:55;11.00;99.90
13798;DHT22;6970;51.340;3.240;2022-11-15T01:17:22;11.00;99.90
13798;DHT22;6970;51.340;3.240;2022-11-15T01:19:48;11.00;99.90
13798;DHT22;6970;51.340;3.240;2022-11-15T01:22:15;11.10;99.90
13798;DHT22;6970;51.340;3.240;2022-11-15T01:24:42;11.10;99.90
13798;DHT22;6970;51.340;3.240;2022-11-15T01:27:09;11.10;99.90
13798;DHT22;6970;51.340;3.240;2022-11-15T01:29:36;11.10;99.90
13798;DHT22;6970;51.340;3.240;2022-11-15T01:32:03;11.10;99.90
13798;DHT22;6970;51.340;3.240;2022-11-15T01:34:30;11.20;99.90
13798;DHT22;6970;51.340;3.240;2022-11-15T01:36:57;11.20;99.90
13798;DHT22;6970;51.340;3.240;2022-11-15T01:39:25;11.20;99.90
13798;DHT22;6970;51.340;3.240;2022-11-15T01:41:53;11.20;99.90
13798;DHT22;6970;51.340;3.240;2022-11-15T01:47:16;11.30;99.90
13798;DHT22;6970;51.340;3.240;2022-11-15T01:50:12;11.30;99.90
13798;DHT22;6970;51.340;3.240;2022-11-15T01:52:41;11.30;99.90
13798;DHT22;6970;51.340;3.240;2022-11-15T01:55:13;11.30;99.90
13798;DHT22;6970;51.340;3.240;2022-11-15T01:57:42;11.30;99.90
13798;DHT22;6970;51.340;3.240;2022-11-15T02:00:12;11.30;99.90
13798;DHT22;6970;51.340;3.240;2022-11-15T02:02:39;11.30;99.90
13798;DHT22;6970;51.340;3.240;2022-11-15T02:05:06;11.30;99.90
13798;DHT22;6970;51.340;3.240;2022-11-15T02:07:35;11.30;99.90
13798;DHT22;6970;51.340;3.240;2022-11-15T02:10:12;11.30;99.90
13798;DHT22;6970;51.340;3.240;2022-11-15T02:12:40;11.30;99.90
13798;DHT22;6970;51.340;3.240;2022-11-15T02:15:09;11.30;99.90
13798;DHT22;6970;51.340;3.240;2022-11-15T02:39:15;11.20;99.90
13798;DHT22;6970;51.340;3.240;2022-11-15T02:42:02;11.10;99.90
13798;DHT22;6970;51.340;3.240;2022-11-15T02:44:40;11.10;99.90
13798;DHT22;6970;51.340;3.240;2022-11-15T02:47:12;11.10;99.90
13798;DHT22;6970;51.340;3.240;2022-11-15T02:49:55;11.10;99.90
13798;DHT22;6970;51.340;3.240;2022-11-15T02:52:24;11.10;99.90
13798;DHT22;6970;51.340;3.240;2022-11-15T02:54:59;11.10;99.90
13798;DHT22;6970;51.340;3.240;2022-11-15T02:57:52;11.10;99.90
13798;DHT22;6970;51.340;3.240;2022-11-15T03:00:24;11.10;99.90
13798;DHT22;6970;51.340;3.240;2022-11-15T03:03:01;11.10;99.90
13798;DHT22;6970;51.340;3.240;2022-11-15T03:06:03;11.10;99.90
13798;DHT22;6970;51.340;3.240;2022-11-15T03:09:10;11.10;99.90
13798;DHT22;6970;51.340;3.240;2022-11-15T03:11:33;11.10;99.90
13798;DHT22;6970;51.340;3.240;2022-11-15T03:22:12;10.90;99.90
13798;DHT22;6970;51.340;3.240;2022-11-15T03:24:43;10.90;99.90
13798;DHT22;6970;51.340;3.240;2022-11-15T03:27:14;10.90;99.90
13798;DHT22;6970;51.340;3.240;2022-11-15T03:29:46;10.90;99.90
13798;DHT22;6970;51.340;3.240;2022-11-15T03:32:23;10.90;99.90
13798;DHT22;6970;51.340;3.240;2022-11-15T03:35:12;10.90;99.90
13798;DHT22;6970;51.340;3.240;2022-11-15T03:43:34;10.80;99.90
13798;DHT22;6970;51.340;3.240;2022-11-15T03:46:14;10.70;99.90
13798;DHT22;6970;51.340;3.240;2022-11-15T03:48:51;10.70;99.90
13798;DHT22;6970;51.340;3.240;2022-11-15T03:51:18;10.70;99.90
13798;DHT22;6970;51.340;3.240;2022-11-15T03:53:46;10.70;99.90
13798;DHT22;6970;51.340;3.240;2022-11-15T03:56:13;10.70;99.90
13798;DHT22;6970;51.340;3.240;2022-11-15T03:58:39;10.60;99.90
13798;DHT22;6970;51.340;3.240;2022-11-15T04:01:06;10.60;99.90
13798;DHT22;6970;51.340;3.240;2022-11-15T04:03:33;10.60;99.90
13798;DHT22;6970;51.340;3.240;2022-11-15T04:06:00;10.60;99.90
13798;DHT22;6970;51.340;3.240;2022-11-15T04:08:27;10.50;99.90
13798;DHT22;6970;51.340;3.240;2022-11-15T04:10:54;10.50;99.90
13798;DHT22;6970;51.340;3.240;2022-11-15T04:13:21;10.50;99.90
13798;DHT22;6970;51.340;3.240;2022-11-15T04:15:48;10.50;99.90
13798;DHT22;6970;51.340;3.240;2022-11-15T04:18:15;10.40;99.90
13798;DHT22;6970;51.340;3.240;2022-11-15T04:20:42;10.40;99.90
13798;DHT22;6970;51.340;3.240;2022-11-15T04:23:27;10.40;99.90
13798;DHT22;6970;51.340;3.240;2022-11-15T04:26:16;10.40;99.90
13798;DHT22;6970;51.340;3.240;2022-11-15T04:28:45;10.30;99.90
13798;DHT22;6970;51.340;3.240;2022-11-15T04:31:30;10.30;99.90
13798;DHT22;6970;51.340;3.240;2022-11-15T04:33:58;10.30;99.90
13798;DHT22;6970;51.340;3.240;2022-11-15T04:36:25;10.30;99.90
13798;DHT22;6970;51.340;3.240;2022-11-15T04:39:11;10.20;99.90
13798;DHT22;6970;51.340;3.240;2022-11-15T04:41:38;10.20;99.90
13798;DHT22;6970;51.340;3.240;2022-11-15T04:44:05;10.20;99.90
13798;DHT22;6970;51.340;3.240;2022-11-15T04:46:32;10.20;99.90
13798;DHT22;6970;51.340;3.240;2022-11-15T04:48:59;10.20;99.90
13798;DHT22;6970;51.340;3.240;2022-11-15T04:51:26;10.20;99.90
13798;DHT22;6970;51.340;3.240;2022-11-15T04:53:53;10.10;99.90
13798;DHT22;6970;51.340;3.240;2022-11-15T04:56:20;10.10;99.90
13798;DHT22;6970;51.340;3.240;2022-11-15T04:58:49;10.10;99.90
13798;DHT22;6970;51.340;3.240;2022-11-15T05:01:16;10.10;99.90
13798;DHT22;6970;51.340;3.240;2022-11-15T05:03:44;10.10;99.90
13798;DHT22;6970;51.340;3.240;2022-11-15T05:06:30;10.10;99.90
13798;DHT22;6970;51.340;3.240;2022-11-15T05:08:58;10.00;99.90
13798;DHT22;6970;51.340;3.240;2022-11-15T05:11:25;10.00;99.90
13798;DHT22;6970;51.340;3.240;2022-11-15T05:13:54;10.00;99.90
13798;DHT22;6970;51.340;3.240;2022-11-15T05:16:22;9.90;99.90
13798;DHT22;6970;51.340;3.240;2022-11-15T05:18:53;9.90;99.90
13798;DHT22;6970;51.340;3.240;2022-11-15T05:21:20;9.80;99.90
13798;DHT22;6970;51.340;3.240;2022-11-15T05:23:47;9.80;99.90
13798;DHT22;6970;51.340;3.240;2022-11-15T05:26:16;9.80;99.90
13798;DHT22;6970;51.340;3.240;2022-11-15T05:28:44;9.70;99.90
13798;DHT22;6970;51.340;3.240;2022-11-15T05:31:13;9.60;99.90
13798;DHT22;6970;51.340;3.240;2022-11-15T05:33:41;9.60;99.90
13798;DHT22;6970;51.340;3.240;2022-11-15T05:36:32;9.60;99.90
13798;DHT22;6970;51.340;3.240;2022-11-15T05:39:02;9.60;99.90
13798;DHT22;6970;51.340;3.240;2022-11-15T05:41:54;9.60;99.90
13798;DHT22;6970;51.340;3.240;2022-11-15T05:44:23;9.50;99.90
13798;DHT22;6970;51.340;3.240;2022-11-15T05:46:51;9.50;99.90
13798;DHT22;6970;51.340;3.240;2022-11-15T05:49:22;9.40;99.90
13798;DHT22;6970;51.340;3.240;2022-11-15T05:51:51;9.40;99.90
13798;DHT22;6970;51.340;3.240;2022-11-15T05:54:20;9.40;99.90
13798;DHT22;6970;51.340;3.240;2022-11-15T05:56:48;9.40;99.90
13798;DHT22;6970;51.340;3.240;2022-11-15T05:59:16;9.30;99.90
13798;DHT22;6970;51.340;3.240;2022-11-15T06:01:43;9.30;99.90
13798;DHT22;6970;51.340;3.240;2022-11-15T06:04:10;9.20;99.90
13798;DHT22;6970;51.340;3.240;2022-11-15T06:06:37;9.20;99.90
13798;DHT22;6970;51.340;3.240;2022-11-15T06:09:04;9.20;99.90
13798;DHT22;6970;51.340;3.240;2022-11-15T06:11:31;9.20;99.90
13798;DHT22;6970;51.340;3.240;2022-11-15T06:13:58;9.20;99.90
13798;DHT22;6970;51.340;3.240;2022-11-15T06:16:25;9.10;99.90
13798;DHT22;6970;51.340;3.240;2022-11-15T06:18:51;9.10;99.90
13798;DHT22;6970;51.340;3.240;2022-11-15T06:21:18;9.10;99.90
13798;DHT22;6970;51.340;3.240;2022-11-15T06:23:45;9.00;99.90
13798;DHT22;6970;51.340;3.240;2022-11-15T06:26:13;9.00;99.90
13798;DHT22;6970;51.340;3.240;2022-11-15T06:28:40;9.00;99.90
13798;DHT22;6970;51.340;3.240;2022-11-15T06:31:10;9.00;99.90
13798;DHT22;6970;51.340;3.240;2022-11-15T06:33:40;9.00;99.90
13798;DHT22;6970;51.340;3.240;2022-11-15T06:36:12;9.00;99.90
13798;DHT22;6970;51.340;3.240;2022-11-15T06:38:44;9.00;99.90
13798;DHT22;6970;51.340;3.240;2022-11-15T06:41:12;9.00;99.90
13798;DHT22;6970;51.340;3.240;2022-11-15T06:43:40;9.00;99.90
13798;DHT22;6970;51.340;3.240;2022-11-15T06:46:08;9.00;99.90
13798;DHT22;6970;51.340;3.240;2022-11-15T06:48:35;9.00;99.90
13798;DHT22;6970;51.340;3.240;2022-11-15T06:51:04;8.90;99.90
13798;DHT22;6970;51.340;3.240;2022-11-15T06:53:31;9.00;99.90
13798;DHT22;6970;51.340;3.240;2022-11-15T06:56:03;9.00;99.90
13798;DHT22;6970;51.340;3.240;2022-11-15T06:58:31;9.00;99.90
13798;DHT22;6970;51.340;3.240;2022-11-15T07:01:00;9.00;99.90
13798;DHT22;6970;51.340;3.240;2022-11-15T07:03:27;8.90;99.90
13798;DHT22;6970;51.340;3.240;2022-11-15T07:05:56;9.00;99.90
13798;DHT22;6970;51.340;3.240;2022-11-15T07:08:31;8.90;99.90
13798;DHT22;6970;51.340;3.240;2022-11-15T07:10:59;9.00;99.90
13798;DHT22;6970;51.340;3.240;2022-11-15T07:13:28;8.90;99.90
13798;DHT22;6970;51.340;3.240;2022-11-15T07:15:56;8.90;99.90
13798;DHT22;6970;51.340;3.240;2022-11-15T07:18:23;8.90;99.90
13798;DHT22;6970;51.340;3.240;2022-11-15T07:20:52;8.90;99.90
13798;DHT22;6970;51.340;3.240;2022-11-15T07:23:19;9.00;99.90
13798;DHT22;6970;51.340;3.240;2022-11-15T07:25:46;9.00;99.90
13798;DHT22;6970;51.340;3.240;2022-11-15T07:28:13;9.00;99.90
13798;DHT22;6970;51.340;3.240;2022-11-15T07:30:40;9.10;99.90
13798;DHT22;6970;51.340;3.240;2022-11-15T07:33:11;9.10;99.90
13798;DHT22;6970;51.340;3.240;2022-11-15T07:35:37;9.20;99.90
13798;DHT22;6970;51.340;3.240;2022-11-15T07:38:04;9.30;99.90
13798;DHT22;6970;51.340;3.240;2022-11-15T07:40:31;9.30;99.90
13798;DHT22;6970;51.340;3.240;2022-11-15T07:43:08;9.40;99.90
13798;DHT22;6970;51.340;3.240;2022-11-15T07:45:42;9.60;99.90
13798;DHT22;6970;51.340;3.240;2022-11-15T07:48:10;9.80;99.90
13798;DHT22;6970;51.340;3.240;2022-11-15T07:50:40;10.00;99.90
13798;DHT22;6970;51.340;3.240;2022-11-15T07:53:10;10.00;99.90
13798;DHT22;6970;51.340;3.240;2022-11-15T07:55:39;10.10;99.90
13798;DHT22;6970;51.340;3.240;2022-11-15T07:58:08;10.30;99.90
13798;DHT22;6970;51.340;3.240;2022-11-15T08:00:36;10.50;99.90
13798;DHT22;6970;51.340;3.240;2022-11-15T08:03:15;10.80;99.90
13798;DHT22;6970;51.340;3.240;2022-11-15T08:05:42;11.60;99.90
13798;DHT22;6970;51.340;3.240;2022-11-15T08:08:10;12.20;99.90
13798;DHT22;6970;51.340;3.240;2022-11-15T08:10:44;12.50;99.90
13798;DHT22;6970;51.340;3.240;2022-11-15T08:13:14;12.90;99.90
13798;DHT22;6970;51.340;3.240;2022-11-15T08:15:44;13.40;99.90
13798;DHT22;6970;51.340;3.240;2022-11-15T08:18:15;13.80;99.90
13798;DHT22;6970;51.340;3.240;2022-11-15T08:20:45;13.90;99.90
13798;DHT22;6970;51.340;3.240;2022-11-15T08:23:15;14.20;99.90
13798;DHT22;6970;51.340;3.240;2022-11-15T08:25:42;14.20;99.90
13798;DHT22;6970;51.340;3.240;2022-11-15T08:28:11;13.90;99.90
13798;DHT22;6970;51.340;3.240;2022-11-15T08:30:40;13.30;99.90
13798;DHT22;6970;51.340;3.240;2022-11-15T08:33:14;12.60;99.90
13798;DHT22;6970;51.340;3.240;2022-11-15T08:35:42;12.20;99.90
13798;DHT22;6970;51.340;3.240;2022-11-15T08:38:10;11.80;99.90
13798;DHT22;6970;51.340;3.240;2022-11-15T08:40:39;11.50;99.90
13798;DHT22;6970;51.340;3.240;2022-11-15T08:43:06;11.30;99.90
13798;DHT22;6970;51.340;3.240;2022-11-15T08:45:35;11.10;99.90
13798;DHT22;6970;51.340;3.240;2022-11-15T08:48:03;11.00;99.90
13798;DHT22;6970;51.340;3.240;2022-11-15T08:50:30;10.90;99.90
13798;DHT22;6970;51.340;3.240;2022-11-15T08:53:07;10.90;99.90
13798;DHT22;6970;51.340;3.240;2022-11-15T08:55:39;11.00;99.90
13798;DHT22;6970;51.340;3.240;2022-11-15T08:58:06;11.10;99.90
13798;DHT22;6970;51.340;3.240;2022-11-15T09:00:34;11.20;99.90
13798;DHT22;6970;51.340;3.240;2022-11-15T09:03:05;11.50;99.90
13798;DHT22;6970;51.340;3.240;2022-11-15T09:05:32;12.00;99.90
13798;DHT22;6970;51.340;3.240;2022-11-15T09:08:03;12.10;99.90
13798;DHT22;6970;51.340;3.240;2022-11-15T09:10:50;12.40;99.90
13798;DHT22;6970;51.340;3.240;2022-11-15T09:13:21;13.40;99.90
13798;DHT22;6970;51.340;3.240;2022-11-15T09:15:51;14.50;99.90
13798;DHT22;6970;51.340;3.240;2022-11-15T09:18:19;15.30;99.90
13798;DHT22;6970;51.340;3.240;2022-11-15T09:20:50;15.80;99.90
13798;DHT22;6970;51.340;3.240;2022-11-15T09:23:18;16.00;99.90
13798;DHT22;6970;51.340;3.240;2022-11-15T09:25:48;15.90;99.90
13798;DHT22;6970;51.340;3.240;2022-11-15T09:28:16;15.80;99.90
13798;DHT22;6970;51.340;3.240;2022-11-15T09:30:45;15.80;99.90
13798;DHT22;6970;51.340;3.240;2022-11-15T09:33:14;15.60;99.90
13798;DHT22;6970;51.340;3.240;2022-11-15T09:35:41;15.30;99.90
13798;DHT22;6970;51.340;3.240;2022-11-15T09:38:14;15.00;99.90
13798;DHT22;6970;51.340;3.240;2022-11-15T09:40:41;14.90;99.90
13798;DHT22;6970;51.340;3.240;2022-11-15T09:43:25;14.80;99.90
13798;DHT22;6970;51.340;3.240;2022-11-15T09:51:32;13.70;99.90
13798;DHT22;6970;51.340;3.240;2022-11-15T09:57:20;13.10;99.90
13798;DHT22;6970;51.340;3.240;2022-11-15T10:03:12;12.70;99.90
13798;DHT22;6970;51.340;3.240;2022-11-15T10:05:48;12.70;99.90
13798;DHT22;6970;51.340;3.240;2022-11-15T10:11:22;13.00;99.90
13798;DHT22;6970;51.340;3.240;2022-11-15T10:14:26;13.20;99.90
13798;DHT22;6970;51.340;3.240;2022-11-15T10:20:29;13.30;99.90
13798;DHT22;6970;51.340;3.240;2022-11-15T10:23:05;13.40;99.90
13798;DHT22;6970;51.340;3.240;2022-11-15T10:25:34;13.60;99.90
13798;DHT22;6970;51.340;3.240;2022-11-15T10:28:37;13.80;99.90
13798;DHT22;6970;51.340;3.240;2022-11-15T10:31:27;14.00;99.90
13798;DHT22;6970;51.340;3.240;2022-11-15T10:34:19;14.10;99.90
13798;DHT22;6970;51.340;3.240;2022-11-15T10:36:58;14.20;99.90
13798;DHT22;6970;51.340;3.240;2022-11-15T10:39:28;14.50;99.90
13798;DHT22;6970;51.340;3.240;2022-11-15T10:41:56;14.90;99.90
13798;DHT22;6970;51.340;3.240;2022-11-15T10:44:29;15.30;99.90
13798;DHT22;6970;51.340;3.240;2022-11-15T10:49:35;15.90;99.90
13798;DHT22;6970;51.340;3.240;2022-11-15T10:52:17;16.20;99.90
13798;DHT22;6970;51.340;3.240;2022-11-15T10:57:57;16.50;99.90
13798;DHT22;6970;51.340;3.240;2022-11-15T11:00:37;16.90;99.90
13798;DHT22;6970;51.340;3.240;2022-11-15T11:03:45;17.00;99.90
13798;DHT22;6970;51.340;3.240;2022-11-15T11:06:24;16.80;99.90
13798;DHT22;6970;51.340;3.240;2022-11-15T11:09:04;16.30;99.90
13798;DHT22;6970;51.340;3.240;2022-11-15T11:14:35;15.60;99.90
13798;DHT22;6970;51.340;3.240;2022-11-15T11:20:23;14.80;99.90
13798;DHT22;6970;51.340;3.240;2022-11-15T11:25:38;14.10;99.90
13798;DHT22;6970;51.340;3.240;2022-11-15T11:28:32;13.90;99.90
13798;DHT22;6970;51.340;3.240;2022-11-15T11:36:56;13.40;99.90
13798;DHT22;6970;51.340;3.240;2022-11-15T11:42:43;13.30;99.90
13798;DHT22;6970;51.340;3.240;2022-11-15T11:45:26;13.30;99.90
13798;DHT22;6970;51.340;3.240;2022-11-15T11:50:39;13.30;99.90
13798;DHT22;6970;51.340;3.240;2022-11-15T11:53:29;13.20;99.90
13798;DHT22;6970;51.340;3.240;2022-11-15T11:58:58;13.30;99.90
13798;DHT22;6970;51.340;3.240;2022-11-15T12:01:40;13.20;99.90
13798;DHT22;6970;51.340;3.240;2022-11-15T12:04:26;13.20;99.90
13798;DHT22;6970;51.340;3.240;2022-11-15T12:07:02;13.10;99.90
13798;DHT22;6970;51.340;3.240;2022-11-15T12:09:33;13.00;99.90
13798;DHT22;6970;51.340;3.240;2022-11-15T12:12:45;13.00;99.90
13798;DHT22;6970;51.340;3.240;2022-11-15T12:15:30;13.00;99.90
13798;DHT22;6970;51.340;3.240;2022-11-15T12:18:00;12.90;99.90
13798;DHT22;6970;51.340;3.240;2022-11-15T12:20:40;12.90;99.90
13798;DHT22;6970;51.340;3.240;2022-11-15T12:23:17;12.80;99.90
13798;DHT22;6970;51.340;3.240;2022-11-15T12:26:00;12.80;99.90
13798;DHT22;6970;51.340;3.240;2022-11-15T12:28:42;12.80;99.90
13798;DHT22;6970;51.340;3.240;2022-11-15T12:31:52;12.80;99.90
13798;DHT22;6970;51.340;3.240;2022-11-15T12:34:35;12.80;99.90
13798;DHT22;6970;51.340;3.240;2022-11-15T12:45:45;13.10;99.90
13798;DHT22;6970;51.340;3.240;2022-11-15T12:50:57;13.10;99.90
13798;DHT22;6970;51.340;3.240;2022-11-15T12:53:28;13.10;99.90
13798;DHT22;6970;51.340;3.240;2022-11-15T12:58:58;13.00;99.90
13798;DHT22;6970;51.340;3.240;2022-11-15T13:06:44;12.90;99.90
13798;DHT22;6970;51.340;3.240;2022-11-15T13:14:53;12.90;99.90
13798;DHT22;6970;51.340;3.240;2022-11-15T13:17:27;12.90;99.90
13798;DHT22;6970;51.340;3.240;2022-11-15T13:23:00;12.90;99.90
13798;DHT22;6970;51.340;3.240;2022-11-15T13:33:45;12.60;99.90
13798;DHT22;6970;51.340;3.240;2022-11-15T13:36:25;12.60;99.90
13798;DHT22;6970;51.340;3.240;2022-11-15T13:39:05;12.60;99.90
13798;DHT22;6970;51.340;3.240;2022-11-15T13:41:36;12.60;99.90
13798;DHT22;6970;51.340;3.240;2022-11-15T13:44:24;12.50;99.90
13798;DHT22;6970;51.340;3.240;2022-11-15T13:47:14;12.50;99.90
13798;DHT22;6970;51.340;3.240;2022-11-15T13:49:42;12.50;99.90
13798;DHT22;6970;51.340;3.240;2022-11-15T13:52:14;12.40;99.90
13798;DHT22;6970;51.340;3.240;2022-11-15T13:57:30;12.40;99.90
13798;DHT22;6970;51.340;3.240;2022-11-15T14:00:06;12.30;99.90
13798;DHT22;6970;51.340;3.240;2022-11-15T14:02:50;12.30;99.90
13798;DHT22;6970;51.340;3.240;2022-11-15T14:05:25;12.20;99.90
13798;DHT22;6970;51.340;3.240;2022-11-15T14:08:05;12.10;99.90
13798;DHT22;6970;51.340;3.240;2022-11-15T14:10:42;12.10;99.90
13798;DHT22;6970;51.340;3.240;2022-11-15T14:13:29;12.00;99.90
13798;DHT22;6970;51.340;3.240;2022-11-15T14:16:21;12.00;99.90
13798;DHT22;6970;51.340;3.240;2022-11-15T14:19:00;12.00;99.90
13798;DHT22;6970;51.340;3.240;2022-11-15T14:21:27;11.90;99.90
13798;DHT22;6970;51.340;3.240;2022-11-15T14:24:13;11.90;99.90
13798;DHT22;6970;51.340;3.240;2022-11-15T14:26:43;11.80;99.90
13798;DHT22;6970;51.340;3.240;2022-11-15T14:29:29;11.80;99.90
13798;DHT22;6970;51.340;3.240;2022-11-15T14:32:13;11.80;99.90
13798;DHT22;6970;51.340;3.240;2022-11-15T14:34:43;11.80;99.90
13798;DHT22;6970;51.340;3.240;2022-11-15T14:37:33;11.70;99.90
13798;DHT22;6970;51.340;3.240;2022-11-15T14:40:06;11.70;99.90
13798;DHT22;6970;51.340;3.240;2022-11-15T14:42:36;11.70;99.90
13798;DHT22;6970;51.340;3.240;2022-11-15T14:45:13;11.60;99.90
13798;DHT22;6970;51.340;3.240;2022-11-15T14:47:42;11.60;99.90
13798;DHT22;6970;51.340;3.240;2022-11-15T14:50:18;11.50;99.90
13798;DHT22;6970;51.340;3.240;2022-11-15T14:52:48;11.50;99.90
13798;DHT22;6970;51.340;3.240;2022-11-15T14:55:26;11.50;99.90
13798;DHT22;6970;51.340;3.240;2022-11-15T14:57:56;11.40;99.90
13798;DHT22;6970;51.340;3.240;2022-11-15T15:00:26;11.50;99.90
13798;DHT22;6970;51.340;3.240;2022-11-15T15:03:03;11.40;99.90
13798;DHT22;6970;51.340;3.240;2022-11-15T15:05:42;11.40;99.90
13798;DHT22;6970;51.340;3.240;2022-11-15T15:08:10;11.30;99.90
13798;DHT22;6970;51.340;3.240;2022-11-15T15:10:43;11.30;99.90
13798;DHT22;6970;51.340;3.240;2022-11-15T15:13:21;11.30;99.90
13798;DHT22;6970;51.340;3.240;2022-11-15T15:15:54;11.30;99.90
13798;DHT22;6970;51.340;3.240;2022-11-15T15:18:21;11.30;99.90
13798;DHT22;6970;51.340;3.240;2022-11-15T15:20:56;11.30;99.90
13798;DHT22;6970;51.340;3.240;2022-11-15T15:23:26;11.30;99.90
13798;DHT22;6970;51.340;3.240;2022-11-15T15:25:56;11.30;99.90
13798;DHT22;6970;51.340;3.240;2022-11-15T15:28:25;11.30;99.90
13798;DHT22;6970;51.340;3.240;2022-11-15T15:30:59;11.30;99.90
13798;DHT22;6970;51.340;3.240;2022-11-15T15:33:26;11.30;99.90
13798;DHT22;6970;51.340;3.240;2022-11-15T15:35:53;11.30;99.90
13798;DHT22;6970;51.340;3.240;2022-11-15T15:38:20;11.30;99.90
13798;DHT22;6970;51.340;3.240;2022-11-15T15:40:48;11.20;99.90
13798;DHT22;6970;51.340;3.240;2022-11-15T15:43:17;11.20;99.90
13798;DHT22;6970;51.340;3.240;2022-11-15T15:45:45;11.20;99.90
13798;DHT22;6970;51.340;3.240;2022-11-15T15:48:16;11.20;99.90
13798;DHT22;6970;51.340;3.240;2022-11-15T15:50:46;11.20;99.90
13798;DHT22;6970;51.340;3.240;2022-11-15T15:53:17;11.20;99.90
13798;DHT22;6970;51.340;3.240;2022-11-15T15:55:44;11.20;99.90
13798;DHT22;6970;51.340;3.240;2022-11-15T15:58:14;11.20;99.90
13798;DHT22;6970;51.340;3.240;2022-11-15T16:00:46;11.20;99.90
13798;DHT22;6970;51.340;3.240;2022-11-15T16:03:13;11.20;99.90
13798;DHT22;6970;51.340;3.240;2022-11-15T16:05:40;11.30;99.90
13798;DHT22;6970;51.340;3.240;2022-11-15T16:08:35;11.30;99.90
13798;DHT22;6970;51.340;3.240;2022-11-15T16:11:25;11.30;99.90
13798;DHT22;6970;51.340;3.240;2022-11-15T16:13:55;11.30;99.90
13798;DHT22;6970;51.340;3.240;2022-11-15T16:16:24;11.30;99.90
13798;DHT22;6970;51.340;3.240;2022-11-15T16:18:54;11.30;99.90
13798;DHT22;6970;51.340;3.240;2022-11-15T16:21:23;11.30;99.90
13798;DHT22;6970;51.340;3.240;2022-11-15T16:23:51;11.30;99.90
13798;DHT22;6970;51.340;3.240;2022-11-15T16:26:28;11.30;99.90
13798;DHT22;6970;51.340;3.240;2022-11-15T16:28:59;11.30;99.90
13798;DHT22;6970;51.340;3.240;2022-11-15T16:31:27;11.40;99.90
13798;DHT22;6970;51.340;3.240;2022-11-15T16:33:57;11.40;99.90
13798;DHT22;6970;51.340;3.240;2022-11-15T16:36:25;11.40;99.90
13798;DHT22;6970;51.340;3.240;2022-11-15T16:38:59;11.40;99.90
13798;DHT22;6970;51.340;3.240;2022-11-15T16:41:28;11.50;99.90
13798;DHT22;6970;51.340;3.240;2022-11-15T16:43:56;11.60;99.90
13798;DHT22;6970;51.340;3.240;2022-11-15T16:46:26;11.50;99.90
13798;DHT22;6970;51.340;3.240;2022-11-15T16:48:53;11.60;99.90
13798;DHT22;6970;51.340;3.240;2022-11-15T16:51:22;11.60;99.90
13798;DHT22;6970;51.340;3.240;2022-11-15T16:53:49;11.60;99.90
13798;DHT22;6970;51.340;3.240;2022-11-15T16:56:29;11.60;99.90
13798;DHT22;6970;51.340;3.240;2022-11-15T16:59:00;11.60;99.90
13798;DHT22;6970;51.340;3.240;2022-11-15T17:01:32;11.60;99.90
13798;DHT22;6970;51.340;3.240;2022-11-15T17:04:02;11.70;99.90
13798;DHT22;6970;51.340;3.240;2022-11-15T17:06:44;11.70;99.90
13798;DHT22;6970;51.340;3.240;2022-11-15T17:11:44;11.70;99.90
13798;DHT22;6970;51.340;3.240;2022-11-15T17:14:15;11.80;99.90
13798;DHT22;6970;51.340;3.240;2022-11-15T17:16:45;11.80;99.90
13798;DHT22;6970;51.340;3.240;2022-11-15T17:19:14;11.80;99.90
13798;DHT22;6970;51.340;3.240;2022-11-15T17:21:43;11.80;99.90
13798;DHT22;6970;51.340;3.240;2022-11-15T17:24:13;11.80;99.90
13798;DHT22;6970;51.340;3.240;2022-11-15T17:26:43;11.90;99.90
13798;DHT22;6970;51.340;3.240;2022-11-15T17:29:13;11.90;99.90
13798;DHT22;6970;51.340;3.240;2022-11-15T17:31:42;11.90;99.90
13798;DHT22;6970;51.340;3.240;2022-11-15T17:34:10;11.90;99.90
13798;DHT22;6970;51.340;3.240;2022-11-15T17:36:39;11.90;99.90
13798;DHT22;6970;51.340;3.240;2022-11-15T17:39:07;11.90;99.90
13798;DHT22;6970;51.340;3.240;2022-11-15T17:41:37;11.90;99.90
13798;DHT22;6970;51.340;3.240;2022-11-15T17:44:07;11.90;99.90
13798;DHT22;6970;51.340;3.240;2022-11-15T17:46:36;11.90;99.90
13798;DHT22;6970;51.340;3.240;2022-11-15T17:49:05;11.90;99.90
13798;DHT22;6970;51.340;3.240;2022-11-15T17:51:35;12.00;99.90
13798;DHT22;6970;51.340;3.240;2022-11-15T17:54:04;12.00;99.90
13798;DHT22;6970;51.340;3.240;2022-11-15T17:56:38;12.00;99.90
13798;DHT22;6970;51.340;3.240;2022-11-15T17:59:07;12.00;99.90
13798;DHT22;6970;51.340;3.240;2022-11-15T18:01:41;12.00;99.90
13798;DHT22;6970;51.340;3.240;2022-11-15T18:04:11;12.00;99.90
13798;DHT22;6970;51.340;3.240;2022-11-15T18:06:41;12.00;99.90
13798;DHT22;6970;51.340;3.240;2022-11-15T18:09:12;12.00;99.90
13798;DHT22;6970;51.340;3.240;2022-11-15T18:11:41;12.00;99.90
13798;DHT22;6970;51.340;3.240;2022-11-15T18:14:14;12.00;99.90
13798;DHT22;6970;51.340;3.240;2022-11-15T18:16:41;12.00;99.90
13798;DHT22;6970;51.340;3.240;2022-11-15T18:19:09;12.00;99.90
13798;DHT22;6970;51.340;3.240;2022-11-15T18:21:42;12.10;99.90
13798;DHT22;6970;51.340;3.240;2022-11-15T18:24:30;12.10;99.90
13798;DHT22;6970;51.340;3.240;2022-11-15T18:27:05;12.10;99.90
13798;DHT22;6970;51.340;3.240;2022-11-15T18:29:35;12.10;99.90